Time;durP1;ratioP1;P1;durP2;ratioP2;P2;SDS_P1;SDS_P2;PMS_P1;PMS_P2;Temp;Humidity;BMP_temperature;BMP_pressure;BME280_temperature;BME280_humidity;BME280_pressure;Samples;Min_cycle;Max_cycle;Signal;HPM_P1;HPM_P2
2022/01/17 00:01:24;;;;;;;;;;;;;;;;;;5133700;28;20006;-77
2022/01/17 00:03:50;;;;;;;;;;;;;;;;;;5134360;28;19923;-77
2022/01/17 00:06:15;;;;;;;;;;;;;;;;;;5115997;28;19915;-77
2022/01/17 00:08:44;;;;;;;;;;;;;;;;;;5134535;27;19923;-77
2022/01/17 00:11:11;;;;;;;;;;;;;;;;;;5134592;28;19965;-77
2022/01/17 00:13:38;;;;;;;;;;;;;;;;;;5134578;28;20018;-77
2022/01/17 00:16:09;;;;;;;;;;;;;;;;;;5134700;27;19917;-77
2022/01/17 00:21:00;;;;;;;;;;;;;;;;;;5138675;27;19915;-77
2022/01/17 00:23:26;;;;;;;;;;;;;;;;;;5138326;27;20344;-77
2022/01/17 00:25:51;;;;;;;;;;;;;;;;;;5119958;27;19964;-77
2022/01/17 00:28:17;;;;;;;;;;;;;;;;;;5138232;27;19915;-77
2022/01/17 00:30:42;;;;;;;;;;;;;;;;;;5138326;27;19919;-77
2022/01/17 00:33:08;;;;;;;;;;;;;;;;;;5138345;27;19979;-77
2022/01/17 00:35:33;;;;;;;;;;;;;;;;;;5137500;27;19915;-76
2022/01/17 00:37:58;;;;;;;;;;;;;;;;;;5137953;27;19922;-77
2022/01/17 00:40:25;;;;;;;;;;;;;;;;;;5138180;27;19968;-77
2022/01/17 00:42:50;;;;;;;;;;;;;;;;;;5137977;27;19976;-77
2022/01/17 00:45:16;;;;;;;;;;;;;;;;;;5119384;27;19985;-77
2022/01/17 00:47:42;;;;;;;;;;;;;;;;;;5137832;27;20321;-77
2022/01/17 00:50:08;;;;;;;;;;;;;;;;;;5137935;27;19920;-77
2022/01/17 00:52:33;;;;;;;;;;;;;;;;;;5137776;27;20041;-77
2022/01/17 00:54:58;;;;;;;;;;;;;;;;;;5137869;27;19955;-77
2022/01/17 00:57:24;;;;;;;;;;;;;;;;;;5137257;27;19959;-78
2022/01/17 00:59:49;;;;;;;;;;;;;;;;;;5137793;27;19923;-77
2022/01/17 01:02:15;;;;;;;;;;;;;;;;;;5136917;27;19915;-77
2022/01/17 01:04:40;;;;;;;;;;;;;;;;;;5119237;27;19925;-77
2022/01/17 01:07:05;;;;;;;;;;;;;;;;;;5137329;27;19921;-77
2022/01/17 01:09:37;;;;;;;;;;;;;;;;;;5137429;27;19922;-76
2022/01/17 01:12:03;;;;;;;;;;;;;;;;;;5137154;27;19919;-77
2022/01/17 01:14:28;;;;;;;;;;;;;;;;;;5137188;27;20291;-77
2022/01/17 01:16:56;;;;;;;;;;;;;;;;;;5137224;27;19915;-77
2022/01/17 01:27:37;;;;;;;;;;;;;;;;;;5137303;27;19915;-77
2022/01/17 01:30:08;;;;;;;;;;;;;;;;;;5136338;27;20518;-77
2022/01/17 01:32:41;;;;;;;;;;;;;;;;;;5137092;27;19915;-77
2022/01/17 01:35:10;;;;;;;;;;;;;;;;;;5137148;27;19923;-77
2022/01/17 01:37:35;;;;;;;;;;;;;;;;;;5118286;27;19963;-77
2022/01/17 01:40:01;;;;;;;;;;;;;;;;;;5136967;27;19957;-77
2022/01/17 01:42:29;;;;;;;;;;;;;;;;;;5136884;27;19916;-77
2022/01/17 01:44:55;;;;;;;;;;;;;;;;;;5136928;27;19915;-77
2022/01/17 01:47:21;;;;;;;;;;;;;;;;;;5136554;27;20330;-77
2022/01/17 01:49:47;;;;;;;;;;;;;;;;;;5136543;27;19919;-77
2022/01/17 01:52:12;;;;;;;;;;;;;;;;;;5136933;27;20036;-77
2022/01/17 01:54:37;;;;;;;;;;;;;;;;;;5136596;27;19915;-77
2022/01/17 01:57:03;;;;;;;;;;;;;;;;;;5136500;27;20377;-77
2022/01/17 01:59:28;;;;;;;;;;;;;;;;;;5136590;27;19919;-77
2022/01/17 02:01:54;;;;;;;;;;;;;;;;;;5118158;27;19973;-77
2022/01/17 02:04:20;;;;;;;;;;;;;;;;;;5136464;27;20261;-77
2022/01/17 02:06:45;;;;;;;;;;;;;;;;;;5136439;27;20296;-77
2022/01/17 02:09:10;;;;;;;;;;;;;;;;;;5136288;27;19923;-77
2022/01/17 02:11:36;;;;;;;;;;;;;;;;;;5136312;27;19921;-77
2022/01/17 02:14:02;;;;;;;;;;;;;;;;;;5135544;27;20357;-77
2022/01/17 02:16:27;;;;;;;;;;;;;;;;;;5136110;27;19916;-77
2022/01/17 02:18:53;;;;;;;;;;;;;;;;;;5135344;27;20380;-77
2022/01/17 02:21:31;;;;;;;;;;;;;;;;;;5136152;27;20400;-77
2022/01/17 02:23:56;;;;;;;;;;;;;;;;;;5117620;27;19922;-77
2022/01/17 02:26:22;;;;;;;;;;;;;;;;;;5135829;27;19915;-77
2022/01/17 02:28:48;;;;;;;;;;;;;;;;;;5135949;27;19935;-77
2022/01/17 02:31:14;;;;;;;;;;;;;;;;;;5136032;27;19915;-77
2022/01/17 02:33:40;;;;;;;;;;;;;;;;;;5117225;27;19915;-77
2022/01/17 02:36:05;;;;;;;;;;;;;;;;;;5116641;27;19916;-77
2022/01/17 02:38:30;;;;;;;;;;;;;;;;;;5134719;27;19920;-77
2022/01/17 02:40:56;;;;;;;;;;;;;;;;;;5135854;27;20025;-77
2022/01/17 02:43:23;;;;;;;;;;;;;;;;;;5135174;27;20345;-77
2022/01/17 02:48:18;;;;;;;;;;;;;;;;;;5135314;27;20471;-77
2022/01/17 02:50:43;;;;;;;;;;;;;;;;;;5135613;27;19921;-77
2022/01/17 02:53:09;;;;;;;;;;;;;;;;;;5135664;27;20284;-77
2022/01/17 02:55:34;;;;;;;;;;;;;;;;;;5135379;27;19916;-77
2022/01/17 02:58:00;;;;;;;;;;;;;;;;;;5135052;27;19962;-77
2022/01/17 03:00:25;;;;;;;;;;;;;;;;;;5135260;27;19916;-77
2022/01/17 03:02:50;;;;;;;;;;;;;;;;;;5135386;27;19916;-77
2022/01/17 03:05:16;;;;;;;;;;;;;;;;;;5134303;27;19915;-77
2022/01/17 03:07:43;;;;;;;;;;;;;;;;;;5135159;27;19919;-77
2022/01/17 03:10:16;;;;;;;;;;;;;;;;;;5135335;27;20333;-76
2022/01/17 03:12:41;;;;;;;;;;;;;;;;;;5118311;27;19925;-78
2022/01/17 03:15:07;;;;;;;;;;;;;;;;;;5137430;27;19923;-79
2022/01/17 03:17:32;;;;;;;;;;;;;;;;;;5137517;27;20002;-78
2022/01/17 03:19:58;;;;;;;;;;;;;;;;;;5135764;27;19923;-78
2022/01/17 03:22:23;;;;;;;;;;;;;;;;;;5137082;27;19911;-78
2022/01/17 03:24:48;;;;;;;;;;;;;;;;;;5137577;27;19915;-78
2022/01/17 03:27:13;;;;;;;;;;;;;;;;;;5118166;27;19915;-78
2022/01/17 03:29:39;;;;;;;;;;;;;;;;;;5137688;27;19922;-78
2022/01/17 03:32:04;;;;;;;;;;;;;;;;;;5136875;27;19988;-78
2022/01/17 03:34:29;;;;;;;;;;;;;;;;;;5138109;27;19923;-78
2022/01/17 03:36:55;;;;;;;;;;;;;;;;;;5138117;27;19915;-78
2022/01/17 03:39:20;;;;;;;;;;;;;;;;;;5137912;27;20365;-78
2022/01/17 03:41:45;;;;;;;;;;;;;;;;;;5136980;27;19923;-78
2022/01/17 03:44:11;;;;;;;;;;;;;;;;;;5137722;27;19968;-78
2022/01/17 03:46:36;;;;;;;;;;;;;;;;;;5137731;28;19915;-78
2022/01/17 03:49:02;;;;;;;;;;;;;;;;;;5139778;27;19923;-79
2022/01/17 03:51:28;;;;;;;;;;;;;;;;;;5139530;27;20077;-77
2022/01/17 03:53:53;;;;;;;;;;;;;;;;;;5120829;27;19916;-76
2022/01/17 03:56:19;;;;;;;;;;;;;;;;;;5137903;27;20276;-76
2022/01/17 03:58:45;;;;;;;;;;;;;;;;;;5138959;27;19919;-77
2022/01/17 04:01:10;;;;;;;;;;;;;;;;;;5102081;27;20384;-77
2022/01/17 04:03:35;;;;;;;;;;;;;;;;;;5138820;27;19919;-77
2022/01/17 04:06:01;;;;;;;;;;;;;;;;;;5138390;27;19915;-77
2022/01/17 04:08:26;;;;;;;;;;;;;;;;;;5138810;27;19915;-76
2022/01/17 04:10:52;;;;;;;;;;;;;;;;;;5138773;27;19915;-76
2022/01/17 04:13:18;;;;;;;;;;;;;;;;;;5138159;27;19918;-77
2022/01/17 04:15:43;;;;;;;;;;;;;;;;;;5138498;27;19915;-77
2022/01/17 04:18:09;;;;;;;;;;;;;;;;;;5119824;27;19919;-77
2022/01/17 04:20:35;;;;;;;;;;;;;;;;;;5138738;27;19947;-77
2022/01/17 04:23:06;;;;;;;;;;;;;;;;;;5119871;27;20344;-77
2022/01/17 04:25:33;;;;;;;;;;;;;;;;;;5138358;27;19921;-77
2022/01/17 04:27:59;;;;;;;;;;;;;;;;;;5138109;27;20368;-76
2022/01/17 04:30:24;;;;;;;;;;;;;;;;;;5138125;27;19921;-77
2022/01/17 04:32:50;;;;;;;;;;;;;;;;;;5138397;27;19919;-77
2022/01/17 04:35:20;;;;;;;;;;;;;;;;;;5137499;27;19969;-77
2022/01/17 04:37:46;;;;;;;;;;;;;;;;;;5138108;27;19923;-77
2022/01/17 04:40:12;;;;;;;;;;;;;;;;;;5137978;27;20266;-77
2022/01/17 04:42:43;;;;;;;;;;;;;;;;;;5137974;27;19922;-77
2022/01/17 04:45:11;;;;;;;;;;;;;;;;;;5137678;27;19927;-77
2022/01/17 04:47:37;;;;;;;;;;;;;;;;;;5119193;27;19916;-77
2022/01/17 04:50:04;;;;;;;;;;;;;;;;;;5137624;27;19986;-76
2022/01/17 04:52:29;;;;;;;;;;;;;;;;;;5137944;27;19916;-76
2022/01/17 04:54:59;;;;;;;;;;;;;;;;;;5137938;27;19972;-76
2022/01/17 04:57:25;;;;;;;;;;;;;;;;;;5137533;27;19920;-76
2022/01/17 04:59:50;;;;;;;;;;;;;;;;;;5119548;27;19915;-76
2022/01/17 05:02:16;;;;;;;;;;;;;;;;;;5136604;27;19954;-77
2022/01/17 05:04:41;;;;;;;;;;;;;;;;;;5137735;27;20018;-77
2022/01/17 05:07:07;;;;;;;;;;;;;;;;;;5137652;27;19931;-77
2022/01/17 05:09:32;;;;;;;;;;;;;;;;;;5119211;27;20264;-77
2022/01/17 05:11:57;;;;;;;;;;;;;;;;;;5119187;27;20114;-77
2022/01/17 05:14:25;;;;;;;;;;;;;;;;;;5137580;27;19922;-77
2022/01/17 05:16:59;;;;;;;;;;;;;;;;;;5137712;27;20314;-77
2022/01/17 05:22:08;;;;;;;;;;;;;;;;;;5137343;27;19927;-77
2022/01/17 05:24:33;;;;;;;;;;;;;;;;;;5137268;27;19920;-77
2022/01/17 05:26:59;;;;;;;;;;;;;;;;;;5137243;27;19963;-76
2022/01/17 05:29:24;;;;;;;;;;;;;;;;;;5137224;27;19943;-76
2022/01/17 05:31:49;;;;;;;;;;;;;;;;;;5137263;27;19915;-76
2022/01/17 05:34:15;;;;;;;;;;;;;;;;;;5137222;27;19967;-76
2022/01/17 05:36:40;;;;;;;;;;;;;;;;;;5137032;27;19967;-76
2022/01/17 05:39:05;;;;;;;;;;;;;;;;;;5136813;27;20392;-76
2022/01/17 05:41:31;;;;;;;;;;;;;;;;;;5136861;27;20014;-76
2022/01/17 05:43:56;;;;;;;;;;;;;;;;;;5136852;27;19920;-77
2022/01/17 05:46:21;;;;;;;;;;;;;;;;;;5136171;27;19919;-76
2022/01/17 05:48:47;;;;;;;;;;;;;;;;;;5136702;27;19927;-76
2022/01/17 05:51:12;;;;;;;;;;;;;;;;;;5135738;27;19915;-77
2022/01/17 05:53:37;;;;;;;;;;;;;;;;;;5136377;27;19920;-77
2022/01/17 05:56:03;;;;;;;;;;;;;;;;;;5136561;27;19915;-77
2022/01/17 05:58:28;;;;;;;;;;;;;;;;;;5136485;27;19923;-77
2022/01/17 06:00:53;;;;;;;;;;;;;;;;;;5136504;27;19969;-77
2022/01/17 06:03:19;;;;;;;;;;;;;;;;;;5136678;27;20030;-77
2022/01/17 06:05:44;;;;;;;;;;;;;;;;;;5136105;27;19947;-76
2022/01/17 06:08:10;;;;;;;;;;;;;;;;;;5119730;27;19915;-76
2022/01/17 06:10:35;;;;;;;;;;;;;;;;;;5137130;27;19916;-75
2022/01/17 06:13:01;;;;;;;;;;;;;;;;;;5135694;27;20250;-76
2022/01/17 06:15:27;;;;;;;;;;;;;;;;;;5135866;27;19967;-76
2022/01/17 06:17:52;;;;;;;;;;;;;;;;;;5135975;27;20321;-76
2022/01/17 06:20:17;;;;;;;;;;;;;;;;;;5136195;27;19915;-76
2022/01/17 06:22:42;;;;;;;;;;;;;;;;;;5136274;27;19922;-76
2022/01/17 06:25:08;;;;;;;;;;;;;;;;;;5135992;27;20295;-76
2022/01/17 06:27:33;;;;;;;;;;;;;;;;;;5136121;27;19915;-76
2022/01/17 06:29:59;;;;;;;;;;;;;;;;;;5135582;27;19961;-76
2022/01/17 06:32:25;;;;;;;;;;;;;;;;;;5136221;27;19919;-75
2022/01/17 06:34:50;;;;;;;;;;;;;;;;;;5135867;27;19980;-76
2022/01/17 06:37:15;;;;;;;;;;;;;;;;;;5134789;27;19919;-74
2022/01/17 06:39:41;;;;;;;;;;;;;;;;;;5135815;27;19922;-74
2022/01/17 06:42:07;;;;;;;;;;;;;;;;;;5135669;27;19919;-76
2022/01/17 06:44:32;;;;;;;;;;;;;;;;;;5135723;27;19968;-75
2022/01/17 06:46:57;;;;;;;;;;;;;;;;;;5136050;27;19915;-75
2022/01/17 06:49:22;;;;;;;;;;;;;;;;;;5135463;27;19964;-76
2022/01/17 06:51:48;;;;;;;;;;;;;;;;;;5135614;27;19919;-75
2022/01/17 06:54:13;;;;;;;;;;;;;;;;;;5135599;27;20376;-75
2022/01/17 06:56:43;;;;;;;;;;;;;;;;;;5135350;27;20400;-75
2022/01/17 06:59:09;;;;;;;;;;;;;;;;;;5117079;27;20345;-75
2022/01/17 07:01:38;;;;;;;;;;;;;;;;;;5135492;27;19954;-75
2022/01/17 07:04:03;;;;;;;;;;;;;;;;;;5135134;27;19915;-75
2022/01/17 07:06:29;;;;;;;;;;;;;;;;;;5134950;27;20436;-75
2022/01/17 07:08:54;;;;;;;;;;;;;;;;;;5116693;27;19966;-75
2022/01/17 07:11:21;;;;;;;;;;;;;;;;;;5099674;27;19968;-75
2022/01/17 07:13:46;;;;;;;;;;;;;;;;;;5135199;27;20439;-75
2022/01/17 07:16:11;;;;;;;;;;;;;;;;;;5134516;27;20019;-75
2022/01/17 07:18:37;;;;;;;;;;;;;;;;;;5134996;27;19919;-75
2022/01/17 07:21:02;;;;;;;;;;;;;;;;;;5135026;27;19922;-74
2022/01/17 07:23:27;;;;;;;;;;;;;;;;;;5134888;27;19969;-75
2022/01/17 07:25:53;;;;;;;;;;;;;;;;;;5116540;27;19915;-75
2022/01/17 07:28:18;;;;;;;;;;;;;;;;;;5135043;27;19919;-75
2022/01/17 07:30:43;;;;;;;;;;;;;;;;;;5135170;27;19955;-75
2022/01/17 07:33:09;;;;;;;;;;;;;;;;;;5135024;27;19922;-75
2022/01/17 07:35:35;;;;;;;;;;;;;;;;;;5134781;27;19938;-75
2022/01/17 07:38:00;;;;;;;;;;;;;;;;;;5116415;27;19976;-75
2022/01/17 07:40:25;;;;;;;;;;;;;;;;;;5135156;27;20257;-75
2022/01/17 07:42:51;;;;;;;;;;;;;;;;;;5116349;27;20010;-75
2022/01/17 07:45:19;;;;;;;;;;;;;;;;;;5116477;27;20342;-75
2022/01/17 07:47:57;;;;;;;;;;;;;;;;;;5134772;27;19915;-75
2022/01/17 07:50:23;;;;;;;;;;;;;;;;;;5133915;28;20261;-73
2022/01/17 07:52:50;;;;;;;;;;;;;;;;;;5133875;28;20330;-74
2022/01/17 07:55:16;;;;;;;;;;;;;;;;;;5133342;28;19919;-74
2022/01/17 07:57:41;;;;;;;;;;;;;;;;;;5134632;27;19930;-74
2022/01/17 08:00:09;;;;;;;;;;;;;;;;;;5134090;28;19923;-73
2022/01/17 08:02:44;;;;;;;;;;;;;;;;;;5134671;28;20300;-74
2022/01/17 08:05:14;;;;;;;;;;;;;;;;;;5116075;28;19915;-73
2022/01/17 08:07:39;;;;;;;;;;;;;;;;;;5134168;27;20381;-74
2022/01/17 08:10:07;;;;;;;;;;;;;;;;;;5133975;28;19915;-74
2022/01/17 08:12:33;;;;;;;;;;;;;;;;;;5116310;28;19915;-72
2022/01/17 08:15:04;;;;;;;;;;;;;;;;;;5132968;28;20391;-74
2022/01/17 08:17:29;;;;;;;;;;;;;;;;;;5134154;27;19920;-73
2022/01/17 08:19:54;;;;;;;;;;;;;;;;;;5134210;28;19919;-74
2022/01/17 08:22:19;;;;;;;;;;;;;;;;;;5134393;28;19922;-74
2022/01/17 08:24:45;;;;;;;;;;;;;;;;;;5134411;28;20011;-75
2022/01/17 08:27:10;;;;;;;;;;;;;;;;;;5134179;27;19960;-75
2022/01/17 08:29:35;;;;;;;;;;;;;;;;;;5134013;28;20039;-74
2022/01/17 08:32:05;;;;;;;;;;;;;;;;;;5134220;28;19923;-75
2022/01/17 08:34:30;;;;;;;;;;;;;;;;;;5133576;28;19926;-75
2022/01/17 08:36:57;;;;;;;;;;;;;;;;;;5116950;27;19915;-76
2022/01/17 08:39:24;;;;;;;;;;;;;;;;;;5138214;27;19961;-75
2022/01/17 08:41:50;;;;;;;;;;;;;;;;;;5138265;27;19915;-76
2022/01/17 08:44:17;;;;;;;;;;;;;;;;;;5137752;27;20253;-76
2022/01/17 08:46:43;;;;;;;;;;;;;;;;;;5138113;27;19923;-75
2022/01/17 08:49:08;;;;;;;;;;;;;;;;;;5119498;27;19923;-76
2022/01/17 08:51:34;;;;;;;;;;;;;;;;;;5137679;27;19916;-76
2022/01/17 08:53:59;;;;;;;;;;;;;;;;;;5137569;27;20280;-76
2022/01/17 08:56:27;;;;;;;;;;;;;;;;;;5119658;27;19930;-76
2022/01/17 08:58:53;;;;;;;;;;;;;;;;;;5137808;27;19919;-75
2022/01/17 09:01:18;;;;;;;;;;;;;;;;;;5137728;27;20295;-75
2022/01/17 09:03:44;;;;;;;;;;;;;;;;;;5137135;27;20006;-75
2022/01/17 09:06:09;;;;;;;;;;;;;;;;;;5137917;27;20353;-75
2022/01/17 09:08:34;;;;;;;;;;;;;;;;;;5137419;27;19916;-75
2022/01/17 09:11:00;;;;;;;;;;;;;;;;;;5137716;27;19961;-76
2022/01/17 09:13:25;;;;;;;;;;;;;;;;;;5137593;27;19915;-76
2022/01/17 09:15:51;;;;;;;;;;;;;;;;;;5119925;27;19919;-77
2022/01/17 09:18:19;;;;;;;;;;;;;;;;;;5121623;27;19920;-77
2022/01/17 09:20:45;;;;;;;;;;;;;;;;;;5121534;27;19922;-77
2022/01/17 09:23:10;;;;;;;;;;;;;;;;;;5120238;27;19915;-77
2022/01/17 09:25:35;;;;;;;;;;;;;;;;;;5137928;27;19915;-77
2022/01/17 09:28:01;;;;;;;;;;;;;;;;;;5137225;27;19955;-77
2022/01/17 09:30:26;;;;;;;;;;;;;;;;;;5137243;27;19915;-76
2022/01/17 09:32:52;;;;;;;;;;;;;;;;;;5121891;27;19919;-78
2022/01/17 09:35:18;;;;;;;;;;;;;;;;;;5139406;27;19922;-77
2022/01/17 09:37:43;;;;;;;;;;;;;;;;;;5139172;27;19919;-78
2022/01/17 09:40:09;;;;;;;;;;;;;;;;;;5139601;27;20407;-76
2022/01/17 09:42:37;;;;;;;;;;;;;;;;;;5137497;27;20293;-76
2022/01/17 09:45:11;;;;;;;;;;;;;;;;;;5136922;27;19916;-76
2022/01/17 09:47:37;;;;;;;;;;;;;;;;;;5136894;27;19968;-74
2022/01/17 09:50:06;;;;;;;;;;;;;;;;;;5136621;27;20372;-74
2022/01/17 09:54:59;;;;;;;;;;;;;;;;;;5137134;27;19919;-76
2022/01/17 09:57:27;;;;;;;;;;;;;;;;;;5118284;27;20425;-76
2022/01/17 09:59:52;;;;;;;;;;;;;;;;;;5136510;27;20380;-76
2022/01/17 10:02:17;;;;;;;;;;;;;;;;;;5136530;27;19922;-76
2022/01/17 10:04:42;;;;;;;;;;;;;;;;;;5136631;27;20004;-76
2022/01/17 10:07:08;;;;;;;;;;;;;;;;;;5136268;27;19915;-75
2022/01/17 10:09:34;;;;;;;;;;;;;;;;;;5137530;27;20341;-77
2022/01/17 10:12:01;;;;;;;;;;;;;;;;;;5108561;27;19915;-77
2022/01/17 10:14:27;;;;;;;;;;;;;;;;;;5105646;27;19923;-77
2022/01/17 10:16:54;;;;;;;;;;;;;;;;;;5124422;27;19916;-77
2022/01/17 10:19:25;;;;;;;;;;;;;;;;;;5120050;27;19927;-75
2022/01/17 10:21:54;;;;;;;;;;;;;;;;;;5140605;27;19915;-77
2022/01/17 10:27:11;;;;;;;;;;;;;;;;;;5137687;27;19915;-77
2022/01/17 10:35:07;;;;;;;;;;;;;;;;;;5139411;27;19942;-78
2022/01/17 10:37:33;;;;;;;;;;;;;;;;;;5137944;27;20361;-76
2022/01/17 10:40:00;;;;;;;;;;;;;;;;;;5139925;27;19919;-80
2022/01/17 10:42:34;;;;;;;;;;;;;;;;;;5140828;27;19915;-77
2022/01/17 10:45:08;;;;;;;;;;;;;;;;;;5121912;27;19948;-77
2022/01/17 10:47:36;;;;;;;;;;;;;;;;;;5126418;27;19963;-77
2022/01/17 10:50:07;;;;;;;;;;;;;;;;;;5117427;28;20290;-78
2022/01/17 10:52:37;;;;;;;;;;;;;;;;;;5121350;27;19976;-78
2022/01/17 10:55:08;;;;;;;;;;;;;;;;;;5138731;27;19916;-77
2022/01/17 10:57:34;;;;;;;;;;;;;;;;;;5119575;27;19942;-82
2022/01/17 11:00:00;;;;;;;;;;;;;;;;;;5139360;27;19950;-80
2022/01/17 11:02:25;;;;;;;;;;;;;;;;;;5121409;27;19937;-82
2022/01/17 11:04:51;;;;;;;;;;;;;;;;;;5138438;27;20274;-80
2022/01/17 11:07:16;;;;;;;;;;;;;;;;;;5138804;27;19915;-77
2022/01/17 11:09:42;;;;;;;;;;;;;;;;;;5141699;27;19919;-77
2022/01/17 11:12:09;;;;;;;;;;;;;;;;;;5145873;27;19915;-79
2022/01/17 11:14:43;;;;;;;;;;;;;;;;;;5132145;27;19927;-78
2022/01/17 11:17:20;;;;;;;;;;;;;;;;;;5126152;27;19916;-77
2022/01/17 11:20:04;;;;;;;;;;;;;;;;;;5123405;27;19922;-78
2022/01/17 11:22:30;;;;;;;;;;;;;;;;;;5123197;27;19926;-79
2022/01/17 11:24:57;;;;;;;;;;;;;;;;;;5146700;27;19982;-79
2022/01/17 11:27:32;;;;;;;;;;;;;;;;;;5144919;27;19961;-79
2022/01/17 11:30:16;;;;;;;;;;;;;;;;;;5128135;27;19922;-80
2022/01/17 11:32:42;;;;;;;;;;;;;;;;;;5147423;27;19954;-77
2022/01/17 11:35:08;;;;;;;;;;;;;;;;;;5124629;28;19963;-78
2022/01/17 11:37:36;;;;;;;;;;;;;;;;;;5126980;27;19957;-78
2022/01/17 11:40:02;;;;;;;;;;;;;;;;;;5126113;27;19959;-79
2022/01/17 11:42:38;;;;;;;;;;;;;;;;;;5144685;27;19915;-81
2022/01/17 11:45:24;;;;;;;;;;;;;;;;;;5112052;27;19941;-77
2022/01/17 11:47:52;;;;;;;;;;;;;;;;;;5123160;27;20376;-79
2022/01/17 11:50:27;;;;;;;;;;;;;;;;;;5136948;28;19919;-78
2022/01/17 11:52:52;;;;;;;;;;;;;;;;;;5119898;28;19987;-78
2022/01/17 11:55:36;;;;;;;;;;;;;;;;;;5141789;28;19965;-79
2022/01/17 11:58:15;;;;;;;;;;;;;;;;;;5138276;27;19981;-77
2022/01/17 12:00:40;;;;;;;;;;;;;;;;;;5136302;28;20296;-78
2022/01/17 12:03:17;;;;;;;;;;;;;;;;;;5117633;28;19922;-78
2022/01/17 12:05:42;;;;;;;;;;;;;;;;;;5137995;28;20437;-78
2022/01/17 12:08:09;;;;;;;;;;;;;;;;;;5119580;28;20128;-78
2022/01/17 12:10:39;;;;;;;;;;;;;;;;;;5137110;27;19930;-78
2022/01/17 12:13:15;;;;;;;;;;;;;;;;;;5139356;27;19960;-78
2022/01/17 12:16:06;;;;;;;;;;;;;;;;;;5140275;27;19916;-78
2022/01/17 12:18:36;;;;;;;;;;;;;;;;;;5139307;27;20010;-77
2022/01/17 12:21:16;;;;;;;;;;;;;;;;;;5139403;27;19912;-78
2022/01/17 12:23:42;;;;;;;;;;;;;;;;;;5139408;27;19919;-78
2022/01/17 12:26:27;;;;;;;;;;;;;;;;;;5123109;27;20226;-78
2022/01/17 12:28:53;;;;;;;;;;;;;;;;;;5121542;27;19959;-78
2022/01/17 12:31:53;;;;;;;;;;;;;;;;;;5141403;27;20357;-78
2022/01/17 12:34:20;;;;;;;;;;;;;;;;;;5037497;28;20341;-78
2022/01/17 12:36:47;;;;;;;;;;;;;;;;;;5120941;27;19961;-78
2022/01/17 12:39:17;;;;;;;;;;;;;;;;;;5138213;27;19916;-77
2022/01/17 12:41:43;;;;;;;;;;;;;;;;;;5119888;27;19926;-77
2022/01/17 12:44:16;;;;;;;;;;;;;;;;;;5138449;27;19915;-78
2022/01/17 12:46:42;;;;;;;;;;;;;;;;;;5137798;27;19927;-77
2022/01/17 12:49:08;;;;;;;;;;;;;;;;;;5138046;27;19919;-78
2022/01/17 12:51:33;;;;;;;;;;;;;;;;;;5138478;27;20384;-78
2022/01/17 12:53:58;;;;;;;;;;;;;;;;;;5122753;27;20266;-78
2022/01/17 12:56:23;;;;;;;;;;;;;;;;;;5124674;27;19915;-78
2022/01/17 12:58:49;;;;;;;;;;;;;;;;;;5141820;27;19926;-78
2022/01/17 13:01:16;;;;;;;;;;;;;;;;;;5141135;27;19915;-78
2022/01/17 13:03:43;;;;;;;;;;;;;;;;;;5141045;27;20370;-78
2022/01/17 13:06:12;;;;;;;;;;;;;;;;;;5139893;27;19974;-78
2022/01/17 13:08:42;;;;;;;;;;;;;;;;;;5106835;27;19916;-78
2022/01/17 13:11:17;;;;;;;;;;;;;;;;;;5142581;27;19915;-78
2022/01/17 13:13:43;;;;;;;;;;;;;;;;;;5118623;27;19915;-78
2022/01/17 13:16:10;;;;;;;;;;;;;;;;;;5132684;27;19920;-78
2022/01/17 13:18:36;;;;;;;;;;;;;;;;;;5133240;27;19915;-78
2022/01/17 13:21:01;;;;;;;;;;;;;;;;;;5134455;27;20002;-78
2022/01/17 13:23:41;;;;;;;;;;;;;;;;;;5133940;27;19916;-78
2022/01/17 13:26:17;;;;;;;;;;;;;;;;;;5113986;27;19915;-78
2022/01/17 13:28:47;;;;;;;;;;;;;;;;;;5099925;27;19919;-78
2022/01/17 13:31:16;;;;;;;;;;;;;;;;;;5120630;27;19916;-78
2022/01/17 13:33:41;;;;;;;;;;;;;;;;;;5119370;27;19941;-77
2022/01/17 13:36:07;;;;;;;;;;;;;;;;;;5137260;27;19919;-77
2022/01/17 13:38:32;;;;;;;;;;;;;;;;;;5136923;27;19927;-77
2022/01/17 13:41:02;;;;;;;;;;;;;;;;;;5137288;27;19922;-77
2022/01/17 13:43:27;;;;;;;;;;;;;;;;;;5136933;27;19916;-77
2022/01/17 13:45:54;;;;;;;;;;;;;;;;;;5118593;27;19915;-76
2022/01/17 13:48:25;;;;;;;;;;;;;;;;;;5136805;27;19944;-77
2022/01/17 13:50:51;;;;;;;;;;;;;;;;;;5137161;27;19922;-77
2022/01/17 13:53:17;;;;;;;;;;;;;;;;;;5136310;27;19920;-77
2022/01/17 13:55:44;;;;;;;;;;;;;;;;;;5136472;27;20006;-77
2022/01/17 13:58:11;;;;;;;;;;;;;;;;;;5136534;27;19923;-76
2022/01/17 14:00:38;;;;;;;;;;;;;;;;;;5136568;27;19961;-77
2022/01/17 14:03:05;;;;;;;;;;;;;;;;;;5135738;27;19915;-77
2022/01/17 14:05:32;;;;;;;;;;;;;;;;;;5136381;27;19923;-77
2022/01/17 14:08:14;;;;;;;;;;;;;;;;;;5121866;27;19915;-78
2022/01/17 14:10:46;;;;;;;;;;;;;;;;;;5139207;27;20006;-79
2022/01/17 14:13:11;;;;;;;;;;;;;;;;;;5121363;27;19922;-79
2022/01/17 14:15:37;;;;;;;;;;;;;;;;;;5120678;27;19915;-78
2022/01/17 14:18:03;;;;;;;;;;;;;;;;;;5138888;27;19969;-79
2022/01/17 14:20:29;;;;;;;;;;;;;;;;;;5138991;27;20392;-77
2022/01/17 14:22:54;;;;;;;;;;;;;;;;;;5138385;27;19912;-77
2022/01/17 14:25:20;;;;;;;;;;;;;;;;;;5137201;27;19956;-78
2022/01/17 14:28:13;;;;;;;;;;;;;;;;;;5136912;27;20003;-77
2022/01/17 14:30:39;;;;;;;;;;;;;;;;;;5131961;27;20406;-76
2022/01/17 14:33:07;;;;;;;;;;;;;;;;;;5117699;27;20000;-77
2022/01/17 14:35:33;;;;;;;;;;;;;;;;;;5135041;27;20001;-77
2022/01/17 14:37:58;;;;;;;;;;;;;;;;;;5118967;27;20014;-76
2022/01/17 14:40:28;;;;;;;;;;;;;;;;;;5138499;27;20260;-78
2022/01/17 14:42:56;;;;;;;;;;;;;;;;;;5143812;27;19920;-78
2022/01/17 14:45:22;;;;;;;;;;;;;;;;;;5130917;27;19937;-79
2022/01/17 14:47:48;;;;;;;;;;;;;;;;;;5148006;27;19915;-79
2022/01/17 14:50:14;;;;;;;;;;;;;;;;;;5142110;27;19920;-79
2022/01/17 14:52:40;;;;;;;;;;;;;;;;;;5124818;27;19922;-79
2022/01/17 15:00:35;;;;;;;;;;;;;;;;;;5121788;27;19923;-77
2022/01/17 15:03:10;;;;;;;;;;;;;;;;;;5139567;27;19915;-78
2022/01/17 15:05:37;;;;;;;;;;;;;;;;;;5101496;27;19915;-78
2022/01/17 15:08:03;;;;;;;;;;;;;;;;;;5136876;27;20002;-78
2022/01/17 15:10:30;;;;;;;;;;;;;;;;;;5133964;27;19916;-80
2022/01/17 15:13:00;;;;;;;;;;;;;;;;;;5134704;27;19924;-77
2022/01/17 15:15:25;;;;;;;;;;;;;;;;;;5117054;27;19962;-76
2022/01/17 15:17:54;;;;;;;;;;;;;;;;;;5135506;27;19959;-76
2022/01/17 15:20:20;;;;;;;;;;;;;;;;;;5134979;27;20338;-76
2022/01/17 15:22:45;;;;;;;;;;;;;;;;;;5135332;27;19940;-76
2022/01/17 15:25:11;;;;;;;;;;;;;;;;;;5135409;27;19966;-75
2022/01/17 15:27:36;;;;;;;;;;;;;;;;;;5134782;27;19938;-76
2022/01/17 15:30:03;;;;;;;;;;;;;;;;;;5135170;27;19938;-75
2022/01/17 15:32:29;;;;;;;;;;;;;;;;;;5134930;27;19915;-76
2022/01/17 15:34:55;;;;;;;;;;;;;;;;;;5116406;27;19911;-76
2022/01/17 15:37:21;;;;;;;;;;;;;;;;;;5133993;27;20272;-77
2022/01/17 15:39:47;;;;;;;;;;;;;;;;;;5134820;27;20063;-77
2022/01/17 15:42:13;;;;;;;;;;;;;;;;;;5135460;27;20397;-78
2022/01/17 15:44:39;;;;;;;;;;;;;;;;;;5135345;27;19919;-78
2022/01/17 15:47:05;;;;;;;;;;;;;;;;;;5134979;27;19937;-78
2022/01/17 15:49:30;;;;;;;;;;;;;;;;;;5112529;28;20365;-78
2022/01/17 15:51:55;;;;;;;;;;;;;;;;;;5113367;28;20391;-77
2022/01/17 15:54:21;;;;;;;;;;;;;;;;;;5114131;28;20339;-78
2022/01/17 15:56:51;;;;;;;;;;;;;;;;;;5103889;28;20327;-78
2022/01/17 15:59:16;;;;;;;;;;;;;;;;;;5108455;28;19920;-77
2022/01/17 16:01:41;;;;;;;;;;;;;;;;;;5114104;28;20348;-77
2022/01/17 16:04:07;;;;;;;;;;;;;;;;;;5114367;28;19916;-77
2022/01/17 16:06:32;;;;;;;;;;;;;;;;;;5114651;28;20002;-77
2022/01/17 16:08:57;;;;;;;;;;;;;;;;;;5113181;28;20365;-78
2022/01/17 16:11:26;;;;;;;;;;;;;;;;;;5114432;28;19916;-77
2022/01/17 16:13:53;;;;;;;;;;;;;;;;;;5114687;28;19916;-78
2022/01/17 16:16:18;;;;;;;;;;;;;;;;;;5095735;28;19923;-78
2022/01/17 16:18:44;;;;;;;;;;;;;;;;;;5113964;28;19920;-78
2022/01/17 16:21:09;;;;;;;;;;;;;;;;;;5114389;28;19920;-77
2022/01/17 16:23:35;;;;;;;;;;;;;;;;;;5113832;28;19957;-77
2022/01/17 16:26:01;;;;;;;;;;;;;;;;;;5114402;28;19920;-77
2022/01/17 16:28:26;;;;;;;;;;;;;;;;;;5113853;28;19916;-77
2022/01/17 16:30:52;;;;;;;;;;;;;;;;;;5113677;28;19923;-78
2022/01/17 16:33:17;;;;;;;;;;;;;;;;;;5114546;28;19923;-77
2022/01/17 16:35:43;;;;;;;;;;;;;;;;;;5112629;28;19923;-77
2022/01/17 16:38:08;;;;;;;;;;;;;;;;;;5112879;28;19959;-77
2022/01/17 16:40:34;;;;;;;;;;;;;;;;;;5113768;28;19923;-77
2022/01/17 16:42:59;;;;;;;;;;;;;;;;;;5112247;28;20369;-77
2022/01/17 16:45:25;;;;;;;;;;;;;;;;;;5113586;28;20014;-77
2022/01/17 16:47:50;;;;;;;;;;;;;;;;;;5113709;28;19968;-77
2022/01/17 16:50:21;;;;;;;;;;;;;;;;;;5131614;28;19926;-77
2022/01/17 16:52:47;;;;;;;;;;;;;;;;;;5134752;28;19915;-77
2022/01/17 16:55:12;;;;;;;;;;;;;;;;;;5134203;28;19916;-77
2022/01/17 16:57:38;;;;;;;;;;;;;;;;;;5134909;27;19938;-77
2022/01/17 17:00:03;;;;;;;;;;;;;;;;;;5137693;27;19921;-78
2022/01/17 17:02:28;;;;;;;;;;;;;;;;;;5137150;27;20299;-77
2022/01/17 17:04:54;;;;;;;;;;;;;;;;;;5119342;27;19926;-77
2022/01/17 17:07:19;;;;;;;;;;;;;;;;;;5137660;27;19921;-77
2022/01/17 17:09:44;;;;;;;;;;;;;;;;;;5137746;27;19998;-77
2022/01/17 17:12:10;;;;;;;;;;;;;;;;;;5137656;27;19959;-77
2022/01/17 17:14:35;;;;;;;;;;;;;;;;;;5137634;27;20241;-77
2022/01/17 17:17:01;;;;;;;;;;;;;;;;;;5136881;27;20234;-77